createdAt,value
2018-11-04T00:02:29.668Z,23.90
2018-11-04T00:04:59.568Z,23.35
2018-11-04T00:07:30.408Z,24.02
2018-11-04T00:10:01.253Z,26.05
2018-11-04T00:12:31.313Z,25.00
2018-11-04T00:15:01.198Z,23.12
2018-11-04T00:17:33.084Z,23.18
2018-11-04T00:20:02.945Z,24.52
2018-11-04T00:22:33.832Z,23.77
2018-11-04T00:25:04.930Z,21.90
2018-11-04T00:27:42.033Z,23.20
2018-11-04T00:30:17.767Z,23.77
2018-11-04T00:32:47.927Z,22.93
2018-11-04T00:35:22.924Z,23.35
2018-11-04T00:37:52.826Z,23.42
2018-11-04T00:40:22.720Z,24.23
2018-11-04T00:42:52.548Z,21.68
2018-11-04T00:45:28.075Z,22.98
2018-11-04T00:48:02.032Z,22.22
2018-11-04T00:50:35.296Z,22.67
2018-11-04T00:53:05.440Z,22.58
2018-11-04T00:55:36.379Z,21.95
2018-11-04T00:58:11.788Z,23.12
2018-11-04T01:00:42.724Z,22.20
2018-11-04T01:03:12.632Z,22.00
2018-11-04T01:05:47.472Z,21.97
2018-11-04T01:08:18.296Z,22.60
2018-11-04T01:10:50.172Z,22.50
2018-11-04T01:13:22.011Z,23.87
2018-11-04T01:15:56.821Z,23.77
2018-11-04T01:18:26.650Z,20.88
2018-11-04T01:20:56.636Z,21.37
2018-11-04T01:23:30.111Z,22.75
2018-11-04T01:26:03.069Z,22.35
2018-11-04T01:28:32.967Z,22.82
2018-11-04T01:31:03.920Z,22.48
2018-11-04T01:33:34.848Z,22.30
2018-11-04T01:36:05.975Z,21.75
2018-11-04T01:38:37.828Z,23.40
2018-11-04T01:41:07.788Z,23.12
2018-11-04T01:43:41.804Z,22.32
2018-11-04T01:46:14.758Z,23.95
2018-11-04T01:48:49.539Z,23.20
2018-11-04T01:51:19.432Z,21.75
2018-11-04T01:53:51.224Z,21.70
2018-11-04T01:56:21.112Z,20.75
2018-11-04T01:58:52.916Z,21.65
2018-11-04T02:01:29.256Z,20.88
2018-11-04T02:03:59.079Z,22.15
2018-11-04T02:06:28.976Z,22.82
2018-11-04T02:09:06.556Z,19.32
2018-11-04T02:11:43.421Z,21.20
2018-11-04T02:14:16.596Z,21.50
2018-11-04T02:16:47.420Z,21.23
2018-11-04T02:19:19.276Z,21.33
2018-11-04T02:21:50.136Z,23.27
2018-11-04T02:24:20.964Z,20.65
2018-11-04T02:26:50.928Z,21.50
2018-11-04T02:29:20.816Z,22.80
2018-11-04T02:31:50.764Z,21.48
2018-11-04T02:34:20.628Z,22.00
2018-11-04T02:36:51.760Z,21.05
2018-11-04T02:39:21.676Z,19.57
2018-11-04T02:41:52.912Z,24.23
2018-11-04T02:44:23.752Z,22.83
2018-11-04T02:46:54.657Z,21.25
2018-11-04T02:49:26.624Z,20.95
2018-11-04T02:52:01.712Z,22.62
2018-11-04T02:54:34.649Z,20.35
2018-11-04T02:57:04.468Z,21.20
2018-11-04T02:59:35.380Z,18.98
2018-11-04T03:02:05.940Z,20.15
2018-11-04T03:04:36.005Z,19.27
2018-11-04T03:07:06.916Z,19.55
2018-11-04T03:09:39.008Z,19.57
2018-11-04T03:12:27.628Z,19.35
2018-11-04T03:14:57.524Z,20.05
2018-11-04T03:17:27.444Z,19.87
2018-11-04T03:19:58.308Z,18.17
2018-11-04T03:22:30.156Z,20.45
2018-11-04T03:25:02.072Z,20.65
2018-11-04T03:27:33.964Z,19.87
2018-11-04T03:30:03.920Z,18.67
2018-11-04T03:32:33.804Z,19.27
2018-11-04T03:35:04.644Z,19.05
2018-11-04T03:37:34.513Z,20.50
2018-11-04T03:40:10.749Z,18.92
2018-11-04T03:42:43.160Z,18.45
2018-11-04T03:45:13.012Z,18.57
2018-11-04T03:47:42.933Z,19.07
2018-11-04T03:50:16.280Z,19.05
2018-11-04T03:52:47.157Z,18.60
2018-11-04T03:55:17.084Z,18.17
2018-11-04T03:58:09.625Z,19.82
2018-11-04T04:00:42.980Z,19.07
2018-11-04T04:03:19.276Z,18.85
2018-11-04T04:05:53.589Z,18.52
2018-11-04T04:08:24.409Z,20.40
2018-11-04T04:10:58.296Z,18.10
2018-11-04T04:13:28.208Z,19.57
2018-11-04T04:15:58.034Z,19.60
2018-11-04T04:18:27.960Z,18.37
2018-11-04T04:21:05.072Z,19.30
2018-11-04T04:23:43.244Z,19.20
2018-11-04T04:26:21.168Z,19.40
2018-11-04T04:28:57.972Z,18.27
2018-11-04T04:31:35.748Z,19.05
2018-11-04T04:34:07.543Z,18.20
2018-11-04T04:36:38.445Z,17.52
2018-11-04T04:39:10.532Z,16.25
2018-11-04T04:41:44.484Z,19.12
2018-11-04T04:44:15.331Z,17.75
2018-11-04T04:46:47.195Z,18.17
2018-11-04T04:49:17.088Z,19.00
2018-11-04T04:51:48.952Z,17.67
2018-11-04T04:54:18.884Z,15.85
2018-11-04T04:57:13.384Z,16.17
2018-11-04T04:59:44.292Z,16.40
2018-11-04T05:02:15.232Z,16.75
2018-11-04T05:04:47.112Z,16.82
2018-11-04T05:07:17.004Z,17.07
2018-11-04T05:09:47.853Z,18.20
2018-11-04T05:12:17.756Z,16.17
2018-11-04T05:14:53.063Z,16.25
2018-11-04T05:17:42.091Z,16.97
2018-11-04T05:20:11.984Z,16.80
2018-11-04T05:22:43.844Z,15.75
2018-11-04T05:25:17.448Z,16.32
2018-11-04T05:27:47.319Z,16.97
2018-11-04T05:30:18.388Z,17.00
2018-11-04T05:32:54.244Z,16.42
2018-11-04T05:35:27.611Z,17.42
2018-11-04T05:37:58.440Z,18.12
2018-11-04T05:40:29.819Z,18.90
2018-11-04T05:43:09.799Z,18.90
2018-11-04T05:45:44.084Z,18.60
2018-11-04T05:48:14.944Z,18.73
2018-11-04T05:50:44.900Z,17.95
2018-11-04T05:53:15.764Z,18.35
2018-11-04T05:55:45.680Z,19.62
2018-11-04T05:58:16.576Z,18.95
2018-11-04T06:00:53.828Z,18.87
2018-11-04T06:03:27.252Z,18.40
2018-11-04T06:05:57.217Z,19.02
2018-11-04T06:08:27.101Z,19.30
2018-11-04T06:10:58.037Z,19.20
2018-11-04T06:13:29.892Z,18.52
2018-11-04T06:15:59.773Z,18.00
2018-11-04T06:18:31.705Z,18.40
2018-11-04T06:21:05.077Z,18.00
2018-11-04T06:23:35.928Z,18.30
2018-11-04T06:26:06.784Z,18.40
2018-11-04T06:28:38.657Z,17.60
2018-11-04T06:31:15.724Z,19.60
2018-11-04T06:33:47.580Z,18.82
2018-11-04T06:36:18.472Z,17.82
2018-11-04T06:38:48.329Z,16.93
2018-11-04T06:41:20.236Z,17.27
2018-11-04T06:43:52.208Z,16.20
2018-11-04T06:46:27.188Z,16.10
2018-11-04T06:48:58.028Z,17.15
2018-11-04T06:51:27.928Z,16.00
2018-11-04T06:53:57.840Z,14.03
2018-11-04T06:56:27.765Z,16.20
2018-11-04T06:58:59.598Z,16.70
2018-11-04T07:01:29.548Z,16.30
2018-11-04T07:04:16.411Z,17.35
2018-11-04T07:06:50.984Z,15.40
2018-11-04T07:09:21.902Z,16.07
2018-11-04T07:11:53.788Z,15.55
2018-11-04T07:14:25.638Z,15.60
2018-11-04T07:16:59.389Z,14.83
2018-11-04T07:19:31.268Z,16.42
2018-11-04T07:22:07.393Z,15.20
2018-11-04T07:24:40.762Z,14.63
2018-11-04T07:27:11.700Z,15.00
2018-11-04T07:29:45.272Z,14.83
2018-11-04T07:32:15.337Z,14.50
2018-11-04T07:34:45.113Z,15.75
2018-11-04T07:37:17.039Z,14.53
2018-11-04T07:39:50.537Z,15.48
2018-11-04T07:42:30.865Z,13.68
2018-11-04T07:45:04.097Z,14.65
2018-11-04T07:47:34.949Z,14.85
2018-11-04T07:50:09.332Z,13.72
2018-11-04T07:52:45.078Z,12.37
2018-11-04T07:55:18.625Z,12.78
2018-11-04T07:57:49.444Z,14.80
2018-11-04T08:00:19.352Z,14.78
2018-11-04T08:02:51.250Z,12.25
2018-11-04T08:05:22.065Z,14.73
2018-11-04T08:07:53.878Z,14.00
2018-11-04T08:10:29.369Z,12.28
2018-11-04T08:13:06.669Z,13.22
2018-11-04T08:15:36.599Z,11.93
2018-11-04T08:18:06.597Z,12.45
2018-11-04T08:20:37.537Z,12.57
2018-11-04T08:23:09.353Z,12.10
2018-11-04T08:25:41.239Z,14.45
2018-11-04T08:28:17.705Z,13.48
2018-11-04T08:30:47.621Z,12.80
2018-11-04T08:33:19.561Z,13.45
2018-11-04T08:35:49.401Z,12.58
2018-11-04T08:38:25.437Z,13.50
2018-11-04T08:41:03.157Z,13.27
2018-11-04T08:43:39.477Z,12.35
2018-11-04T08:46:13.489Z,12.50
2018-11-04T08:48:43.345Z,11.95
2018-11-04T08:51:13.257Z,13.72
2018-11-04T08:53:44.233Z,13.08
2018-11-04T08:56:15.132Z,12.18
2018-11-04T08:58:45.057Z,14.15
2018-11-04T09:01:16.921Z,13.18
2018-11-04T09:04:00.457Z,14.25
2018-11-04T09:06:31.454Z,14.60
2018-11-04T09:09:02.349Z,14.30
2018-11-04T09:11:32.229Z,14.10
2018-11-04T09:14:07.733Z,15.57
2018-11-04T09:16:40.669Z,14.23
2018-11-04T09:19:12.485Z,14.73
2018-11-04T09:21:43.453Z,14.53
2018-11-04T09:24:14.177Z,14.10
2018-11-04T09:26:57.629Z,12.58
2018-11-04T09:29:29.461Z,12.43
2018-11-04T09:32:00.349Z,11.90
2018-11-04T09:34:31.288Z,12.63
2018-11-04T09:37:01.201Z,12.10
2018-11-04T09:39:35.993Z,12.97
2018-11-04T09:42:07.861Z,12.20
2018-11-04T09:44:37.769Z,11.40
2018-11-04T09:47:18.149Z,11.95
2018-11-04T09:49:50.150Z,10.82
2018-11-04T09:52:21.069Z,11.57
2018-11-04T09:55:05.357Z,10.03
2018-11-04T09:57:42.477Z,10.87
2018-11-04T10:00:13.532Z,12.50
2018-11-04T10:02:45.442Z,11.40
2018-11-04T10:05:15.337Z,9.97
2018-11-04T10:07:47.397Z,11.25
2018-11-04T10:10:18.397Z,10.70
2018-11-04T10:12:48.318Z,10.37
2018-11-04T10:15:21.284Z,10.90
2018-11-04T10:17:51.165Z,10.07
2018-11-04T10:20:22.288Z,11.60
2018-11-04T10:22:51.996Z,9.27
2018-11-04T10:25:27.925Z,9.90
2018-11-04T10:27:59.904Z,12.13
2018-11-04T10:30:34.281Z,10.43
2018-11-04T10:33:04.192Z,8.80
2018-11-04T10:35:34.997Z,9.30
2018-11-04T10:38:05.981Z,9.20
2018-11-04T10:40:35.857Z,9.83
2018-11-04T10:43:06.789Z,9.30
2018-11-04T10:45:42.230Z,9.90
2018-11-04T10:48:14.145Z,11.50
2018-11-04T10:50:45.975Z,9.60
2018-11-04T10:53:17.765Z,13.63
2018-11-04T10:55:57.928Z,12.83
2018-11-04T10:58:29.653Z,11.10
2018-11-04T11:01:06.547Z,10.80
2018-11-04T11:03:38.113Z,11.00
2018-11-04T11:06:08.365Z,9.80
2018-11-04T11:08:38.313Z,11.30
2018-11-04T11:11:09.584Z,10.47
2018-11-04T11:13:41.501Z,9.87
2018-11-04T11:16:12.585Z,10.80
2018-11-04T11:18:45.865Z,11.20
2018-11-04T11:21:16.709Z,10.57
2018-11-04T11:23:46.557Z,9.93
2018-11-04T11:26:21.874Z,11.20
2018-11-04T11:28:51.732Z,11.47
2018-11-04T11:31:25.401Z,10.10
2018-11-04T11:33:56.331Z,10.53
2018-11-04T11:36:27.162Z,9.83
2018-11-04T11:38:58.069Z,10.80
2018-11-04T11:41:28.889Z,16.03
2018-11-04T11:43:58.713Z,17.57
2018-11-04T11:46:33.769Z,10.73
2018-11-04T11:49:03.646Z,11.60
2018-11-04T11:51:34.605Z,11.67
2018-11-04T11:54:14.692Z,10.90
2018-11-04T11:56:47.591Z,11.50
2018-11-04T11:59:23.297Z,17.00
2018-11-04T12:01:54.097Z,15.43
2018-11-04T12:04:36.056Z,16.00
2018-11-04T12:07:10.953Z,16.53
2018-11-04T12:09:44.217Z,14.63
2018-11-04T12:12:16.092Z,13.50
2018-11-04T12:14:45.953Z,14.00
2018-11-04T12:17:16.852Z,12.53
2018-11-04T12:19:47.748Z,12.37
2018-11-04T12:22:27.856Z,12.60
2018-11-04T12:24:58.740Z,11.77
2018-11-04T12:27:30.596Z,10.57
2018-11-04T12:30:04.192Z,15.20
2018-11-04T12:32:36.092Z,15.73
2018-11-04T12:35:08.002Z,11.70
2018-11-04T12:37:39.946Z,11.33
2018-11-04T12:40:14.696Z,11.43
2018-11-04T12:42:46.496Z,10.27
2018-11-04T12:45:19.704Z,10.53
2018-11-04T12:47:51.608Z,12.17
2018-11-04T12:50:31.852Z,12.03
2018-11-04T12:53:07.552Z,11.30
2018-11-04T12:55:38.316Z,12.70
2018-11-04T12:58:08.219Z,12.20
2018-11-04T13:00:38.119Z,11.53
2018-11-04T13:03:15.936Z,12.03
2018-11-04T13:05:52.632Z,12.03
2018-11-04T13:08:22.464Z,12.47
2018-11-04T13:10:52.440Z,11.70
2018-11-04T13:13:23.368Z,10.67
2018-11-04T13:16:00.013Z,11.60
2018-11-04T13:18:35.376Z,13.60
2018-11-04T13:21:15.468Z,12.93
2018-11-04T13:23:46.248Z,12.97
2018-11-04T13:26:16.905Z,11.23
2018-11-04T13:28:46.804Z,11.10
2018-11-04T13:31:18.693Z,13.70
2018-11-04T13:33:49.720Z,11.20
2018-11-04T13:36:19.589Z,10.63
2018-11-04T13:39:01.328Z,11.13
2018-11-04T13:41:31.232Z,10.57
2018-11-04T13:44:02.197Z,11.03
2018-11-04T13:46:34.137Z,11.10
2018-11-04T13:49:07.777Z,10.83
2018-11-04T13:51:37.642Z,10.80
2018-11-04T13:54:07.593Z,9.40
2018-11-04T13:56:39.560Z,9.50
2018-11-04T13:59:12.984Z,10.03
2018-11-04T14:01:45.932Z,10.40
2018-11-04T14:04:15.857Z,9.27
2018-11-04T14:06:46.589Z,10.17
2018-11-04T14:09:20.344Z,9.80
2018-11-04T14:11:52.149Z,9.50
2018-11-04T14:14:31.801Z,10.20
2018-11-04T14:17:07.709Z,9.33
2018-11-04T14:19:38.552Z,9.70
2018-11-04T14:22:08.437Z,9.20
2018-11-04T14:24:42.865Z,8.60
2018-11-04T14:27:13.677Z,9.50
2018-11-04T14:29:43.484Z,9.70
2018-11-04T14:32:18.485Z,9.47
2018-11-04T14:34:49.281Z,9.57
2018-11-04T14:37:19.073Z,9.07
2018-11-04T14:39:50.929Z,8.73
2018-11-04T14:42:22.832Z,9.13
2018-11-04T14:44:53.709Z,9.87
2018-11-04T14:47:28.075Z,8.70
2018-11-04T14:50:08.201Z,9.87
2018-11-04T14:52:39.213Z,9.20
2018-11-04T14:55:11.121Z,9.30
2018-11-04T14:57:41.025Z,9.67
2018-11-04T15:00:16.173Z,9.00
2018-11-04T15:02:47.217Z,9.50
2018-11-04T15:05:18.056Z,9.67
2018-11-04T15:07:47.933Z,10.77
2018-11-04T15:10:17.765Z,9.70
2018-11-04T15:12:47.681Z,10.47
2018-11-04T15:15:18.517Z,9.90
2018-11-04T15:17:49.277Z,9.87
2018-11-04T15:20:19.173Z,10.50
2018-11-04T15:22:51.363Z,9.93
2018-11-04T15:25:22.865Z,10.63
2018-11-04T15:27:53.721Z,11.73
2018-11-04T15:30:23.608Z,10.70
2018-11-04T15:32:54.421Z,11.30
2018-11-04T15:35:27.557Z,10.80
2018-11-04T15:37:59.366Z,12.17
2018-11-04T15:40:30.620Z,11.63
2018-11-04T15:43:01.374Z,10.90
2018-11-04T15:45:32.253Z,10.77
2018-11-04T15:48:03.144Z,10.40
2018-11-04T15:50:37.725Z,11.17
2018-11-04T15:53:08.645Z,13.70
2018-11-04T15:55:38.577Z,10.87
2018-11-04T15:58:08.461Z,12.00
2018-11-04T16:00:38.397Z,12.40
2018-11-04T16:03:09.309Z,12.30
2018-11-04T16:05:41.117Z,12.03
2018-11-04T16:08:11.885Z,12.00
2018-11-04T16:10:41.832Z,12.97
2018-11-04T16:13:11.731Z,12.90
2018-11-04T16:15:41.657Z,11.63
2018-11-04T16:18:11.619Z,13.43
2018-11-04T16:20:41.449Z,12.67
2018-11-04T16:23:12.293Z,13.37
2018-11-04T16:25:42.182Z,12.93
2018-11-04T16:28:11.985Z,12.77
2018-11-04T16:30:41.830Z,12.30
2018-11-04T16:33:11.809Z,12.93
2018-11-04T16:35:42.605Z,12.83
2018-11-04T16:38:12.553Z,13.27
2018-11-04T16:40:42.457Z,13.17
2018-11-04T16:43:12.390Z,11.60
2018-11-04T16:45:42.169Z,12.80
2018-11-04T16:48:12.032Z,11.63
2018-11-04T16:50:41.922Z,12.40
2018-11-04T16:53:12.777Z,13.03
2018-11-04T16:55:42.621Z,12.10
2018-11-04T16:58:12.537Z,12.80
2018-11-04T17:00:42.357Z,11.00
2018-11-04T17:03:12.261Z,12.15
2018-11-04T17:05:44.339Z,13.30
2018-11-04T17:08:14.045Z,13.50
2018-11-04T17:10:44.521Z,12.77
2018-11-04T17:13:14.359Z,12.73
2018-11-04T17:15:44.185Z,13.53
2018-11-04T17:18:14.169Z,14.37
2018-11-04T17:20:44.074Z,13.13
2018-11-04T17:23:13.918Z,12.83
2018-11-04T17:25:43.841Z,14.90
2018-11-04T17:28:13.758Z,13.53
2018-11-04T17:30:44.594Z,13.87
2018-11-04T17:33:14.519Z,14.13
2018-11-04T17:35:44.392Z,13.77
2018-11-04T17:38:14.245Z,15.23
2018-11-04T17:40:44.074Z,15.97
2018-11-04T17:43:25.747Z,15.80
2018-11-04T17:45:57.590Z,15.33
2018-11-04T17:48:27.418Z,14.13
2018-11-04T17:51:01.855Z,14.20
2018-11-04T17:53:31.749Z,14.70
2018-11-04T17:56:03.497Z,15.90
2018-11-04T17:58:33.361Z,15.07
2018-11-04T18:01:03.437Z,15.47
2018-11-04T18:03:33.318Z,14.50
2018-11-04T18:06:06.534Z,16.50
2018-11-04T18:08:38.425Z,15.77
2018-11-04T18:11:09.333Z,17.17
2018-11-04T18:13:40.402Z,15.53
2018-11-04T18:16:11.161Z,16.00
2018-11-04T18:18:42.974Z,17.63
2018-11-04T18:21:13.945Z,17.77
2018-11-04T18:23:49.925Z,17.00
2018-11-04T18:26:21.926Z,18.90
2018-11-04T18:28:51.801Z,17.33
2018-11-04T18:31:22.593Z,19.25
2018-11-04T18:33:54.433Z,19.30
2018-11-04T18:36:26.129Z,19.30
2018-11-04T18:38:55.965Z,19.17
2018-11-04T18:41:29.057Z,17.97
2018-11-04T18:44:01.183Z,19.27
2018-11-04T18:46:36.785Z,20.80
2018-11-04T18:49:07.037Z,18.30
2018-11-04T18:51:41.833Z,19.23
2018-11-04T18:54:15.073Z,19.10
2018-11-04T18:56:47.661Z,20.50
2018-11-04T18:59:17.604Z,20.13
2018-11-04T19:01:47.449Z,19.42
2018-11-04T19:04:31.126Z,20.77
2018-11-04T19:07:00.998Z,20.25
2018-11-04T19:09:32.137Z,20.20
2018-11-04T19:12:07.594Z,19.63
2018-11-04T19:14:44.365Z,19.30
2018-11-04T19:17:14.285Z,20.30
2018-11-04T19:19:44.289Z,21.20
2018-11-04T19:22:16.137Z,21.40
2018-11-04T19:24:49.099Z,22.13
2018-11-04T19:27:18.970Z,21.27
2018-11-04T19:29:48.861Z,21.20
2018-11-04T19:32:25.862Z,20.40
2018-11-04T19:34:55.773Z,18.87
2018-11-04T19:37:29.104Z,20.77
2018-11-04T19:39:59.086Z,21.77
2018-11-04T19:42:29.059Z,20.30
2018-11-04T19:45:00.874Z,19.80
2018-11-04T19:47:49.750Z,22.50
2018-11-04T19:50:20.646Z,22.55
2018-11-04T19:52:54.897Z,21.33
2018-11-04T19:55:24.829Z,20.57
2018-11-04T19:57:59.914Z,21.57
2018-11-04T20:00:31.025Z,21.15
2018-11-04T20:03:03.034Z,21.77
2018-11-04T20:05:45.441Z,20.23
2018-11-04T20:08:19.044Z,20.37
2018-11-04T20:10:57.965Z,22.45
2018-11-04T20:13:38.864Z,19.83
2018-11-04T20:16:09.021Z,21.00
2018-11-04T20:18:46.117Z,22.00
2018-11-04T20:21:17.085Z,20.17
2018-11-04T20:23:48.029Z,22.03
2018-11-04T20:26:18.065Z,21.23
2018-11-04T20:28:48.091Z,21.23
2018-11-04T20:31:24.200Z,22.07
2018-11-04T20:34:05.730Z,21.48
2018-11-04T20:36:47.445Z,20.27
2018-11-04T20:39:24.905Z,21.33
2018-11-04T20:41:54.921Z,20.97
2018-11-04T20:44:24.769Z,21.17
2018-11-04T20:47:00.781Z,20.30
2018-11-04T20:49:40.861Z,20.40
2018-11-04T20:52:26.877Z,20.60
2018-11-04T20:54:57.729Z,21.55
2018-11-04T20:57:38.109Z,22.55
2018-11-04T21:00:14.338Z,21.50
2018-11-04T21:02:46.221Z,20.82
2018-11-04T21:05:21.337Z,21.57
2018-11-04T21:07:56.851Z,22.93
2018-11-04T21:10:26.765Z,22.20
2018-11-04T21:12:59.985Z,21.50
2018-11-04T21:15:31.341Z,21.37
2018-11-04T21:18:03.173Z,21.48
2018-11-04T21:20:33.153Z,22.17
2018-11-04T21:23:07.533Z,22.97
2018-11-04T21:26:06.705Z,22.60
2018-11-04T21:28:55.370Z,21.73
2018-11-04T21:31:27.126Z,23.20
2018-11-04T21:34:09.081Z,23.20
2018-11-04T21:36:40.018Z,21.25
2018-11-04T21:39:11.443Z,23.45
2018-11-04T21:41:41.321Z,23.50
2018-11-04T21:44:14.725Z,25.30
2018-11-04T21:46:45.414Z,23.10
2018-11-04T21:49:20.100Z,23.90
2018-11-04T21:51:49.962Z,24.77
2018-11-04T21:54:20.833Z,25.90
2018-11-04T21:57:01.006Z,25.40
2018-11-04T21:59:32.500Z,25.68
2018-11-04T22:02:07.262Z,26.57
2018-11-04T22:04:38.684Z,25.03
2018-11-04T22:07:10.542Z,24.63
2018-11-04T22:09:40.441Z,24.70
2018-11-04T22:12:13.766Z,23.07
2018-11-04T22:14:49.722Z,24.30
2018-11-04T22:17:20.581Z,25.50
2018-11-04T22:19:50.490Z,25.52
2018-11-04T22:22:23.602Z,26.37
2018-11-04T22:24:54.490Z,23.77
2018-11-04T22:27:30.022Z,22.55
2018-11-04T22:30:00.862Z,25.48
2018-11-04T22:32:30.742Z,25.60
2018-11-04T22:35:01.770Z,25.65
2018-11-04T22:37:32.678Z,25.25
2018-11-04T22:40:03.630Z,25.05
2018-11-04T22:42:35.738Z,25.00
2018-11-04T22:45:10.453Z,26.95
2018-11-04T22:47:50.245Z,23.83
2018-11-04T22:50:20.201Z,23.85
2018-11-04T22:52:50.138Z,26.87
2018-11-04T22:55:22.145Z,25.90
2018-11-04T22:57:58.162Z,28.50
2018-11-04T23:00:33.446Z,28.73
2018-11-04T23:03:04.337Z,27.32
2018-11-04T23:05:38.146Z,27.85
2018-11-04T23:08:09.686Z,27.17
2018-11-04T23:10:39.578Z,28.52
2018-11-04T23:13:10.503Z,29.95
2018-11-04T23:15:40.426Z,29.10
2018-11-04T23:18:15.238Z,28.55
2018-11-04T23:20:48.641Z,30.12
2018-11-04T23:23:18.550Z,31.27
2018-11-04T23:25:50.381Z,31.68
2018-11-04T23:28:20.302Z,31.27
2018-11-04T23:30:50.102Z,30.17
2018-11-04T23:33:21.058Z,32.13
2018-11-04T23:35:55.305Z,33.47
2018-11-04T23:38:29.262Z,34.40
2018-11-04T23:41:00.534Z,34.27
2018-11-04T23:43:30.441Z,33.13
2018-11-04T23:46:01.413Z,34.07
2018-11-04T23:48:31.850Z,34.70
2018-11-04T23:51:02.825Z,34.83
2018-11-04T23:53:33.681Z,36.40
2018-11-04T23:56:03.594Z,36.47
2018-11-04T23:58:33.717Z,36.93
